Time;durP1;ratioP1;P1;durP2;ratioP2;P2;SDS_P1;SDS_P2;PMS_P1;PMS_P2;Temp;Humidity;BMP_temperature;BMP_pressure;BME280_temperature;BME280_humidity;BME280_pressure;Samples;Min_cycle;Max_cycle;Signal;HPM_P1;HPM_P2
2021/11/11 00:00:47;;;;;;;20.95;12.25;;;8.90;77.70;;;;;;5028446;28;20021;-80
2021/11/11 00:03:13;;;;;;;24.42;13.80;;;8.80;77.80;;;;;;5028763;28;20114;-79
2021/11/11 00:05:39;;;;;;;17.40;10.88;;;8.80;77.80;;;;;;5029447;28;20476;-80
2021/11/11 00:08:04;;;;;;;19.75;11.10;;;8.70;77.90;;;;;;5027545;28;20145;-80
2021/11/11 00:10:31;;;;;;;20.73;13.48;;;8.70;77.90;;;;;;5029199;28;20499;-80
2021/11/11 00:12:59;;;;;;;24.50;13.52;;;8.70;78.00;;;;;;5028235;28;20176;-80
2021/11/11 00:15:24;;;;;;;16.65;10.20;;;8.60;78.10;;;;;;5027834;28;20022;-80
2021/11/11 00:17:51;;;;;;;16.55;9.80;;;8.60;78.30;;;;;;5027276;28;20373;-80
2021/11/11 00:20:24;;;;;;;15.52;9.43;;;8.60;78.30;;;;;;5028033;28;20021;-80
2021/11/11 00:22:50;;;;;;;23.52;14.98;;;8.60;78.30;;;;;;5027272;28;20045;-79
2021/11/11 00:25:18;;;;;;;19.75;11.70;;;8.50;78.30;;;;;;5029439;28;20026;-80
2021/11/11 00:27:45;;;;;;;16.92;11.00;;;8.50;78.40;;;;;;5028654;28;20025;-79
2021/11/11 00:30:12;;;;;;;22.38;13.50;;;8.50;78.40;;;;;;5029862;28;20022;-79
2021/11/11 00:32:39;;;;;;;22.20;13.60;;;8.50;78.40;;;;;;5029137;28;20030;-78
2021/11/11 00:35:07;;;;;;;20.85;13.35;;;8.40;78.30;;;;;;5028109;28;20527;-80
2021/11/11 00:37:33;;;;;;;22.75;12.77;;;8.50;78.30;;;;;;5028622;28;20038;-79
2021/11/11 00:39:59;;;;;;;23.27;14.50;;;8.50;78.30;;;;;;5029352;28;20380;-79
2021/11/11 00:42:24;;;;;;;21.65;13.88;;;8.40;78.20;;;;;;5030171;28;20041;-79
2021/11/11 00:44:50;;;;;;;19.77;11.18;;;8.40;78.20;;;;;;5034295;28;20522;-79
2021/11/11 00:47:16;;;;;;;18.13;11.15;;;8.50;78.20;;;;;;5033392;28;20032;-80
2021/11/11 00:49:43;;;;;;;18.65;12.05;;;8.50;78.20;;;;;;5033682;28;20024;-79
2021/11/11 00:52:11;;;;;;;17.00;12.00;;;8.50;78.20;;;;;;5033749;28;20112;-80
2021/11/11 00:54:39;;;;;;;16.45;11.43;;;8.60;78.20;;;;;;5032389;28;20656;-81
2021/11/11 00:57:05;;;;;;;18.33;11.57;;;8.60;78.10;;;;;;5033658;28;20033;-81
2021/11/11 00:59:31;;;;;;;19.25;11.45;;;8.60;78.10;;;;;;5033742;28;20443;-80
2021/11/11 01:01:57;;;;;;;18.92;11.68;;;8.60;78.00;;;;;;5033684;28;20041;-80
2021/11/11 01:04:23;;;;;;;16.58;10.18;;;8.70;78.00;;;;;;5032380;28;20078;-80
2021/11/11 01:06:49;;;;;;;16.63;10.48;;;8.60;77.90;;;;;;5033288;28;20491;-80
2021/11/11 01:09:14;;;;;;;16.02;10.85;;;8.70;78.10;;;;;;5033876;28;20026;-80
2021/11/11 01:11:41;;;;;;;17.15;11.35;;;8.70;78.00;;;;;;5033304;28;20060;-80
2021/11/11 01:14:07;;;;;;;19.15;11.60;;;8.70;78.00;;;;;;5033689;28;20098;-80
2021/11/11 01:16:32;;;;;;;17.77;11.68;;;8.70;78.00;;;;;;5033230;28;20045;-80
2021/11/11 01:18:58;;;;;;;16.50;11.23;;;8.70;78.00;;;;;;5032988;28;20087;-81
2021/11/11 01:21:24;;;;;;;15.93;10.82;;;8.70;78.00;;;;;;5033110;28;20030;-80
2021/11/11 01:23:49;;;;;;;14.95;10.05;;;8.80;78.00;;;;;;5033503;28;20032;-78
2021/11/11 01:26:15;;;;;;;15.02;10.05;;;8.80;77.90;;;;;;5033109;28;20025;-78
2021/11/11 01:28:40;;;;;;;17.40;11.20;;;8.70;77.90;;;;;;5032768;28;20018;-78
2021/11/11 01:31:06;;;;;;;13.73;8.95;;;8.80;78.00;;;;;;5032982;28;20029;-80
2021/11/11 01:33:32;;;;;;;17.90;11.70;;;8.80;77.90;;;;;;5033379;28;20018;-79
2021/11/11 01:35:58;;;;;;;20.67;14.00;;;8.70;77.90;;;;;;5059167;28;20076;-81
2021/11/11 01:38:23;;;;;;;20.55;12.80;;;8.70;77.90;;;;;;5025153;28;20029;-82
2021/11/11 01:40:50;;;;;;;18.95;11.80;;;8.60;78.10;;;;;;5032900;28;20017;-82
2021/11/11 01:43:15;;;;;;;17.80;12.38;;;8.60;78.10;;;;;;5021728;28;20030;-82
2021/11/11 01:45:42;;;;;;;19.27;11.75;;;8.60;78.10;;;;;;5033285;28;20017;-80
2021/11/11 01:48:11;;;;;;;19.02;11.68;;;8.60;78.10;;;;;;5032555;28;20021;-82
2021/11/11 01:50:40;;;;;;;14.77;10.43;;;8.70;78.00;;;;;;5032706;28;20057;-80
2021/11/11 01:53:09;;;;;;;18.20;11.82;;;8.70;77.90;;;;;;5032244;28;20495;-80
2021/11/11 01:55:35;;;;;;;15.75;10.32;;;8.70;77.90;;;;;;5031585;28;20033;-80
2021/11/11 01:58:01;;;;;;;17.50;10.57;;;8.80;77.90;;;;;;5030255;28;20065;-80
2021/11/11 02:00:52;;;;;;;19.73;11.95;;;8.80;77.90;;;;;;5032397;28;20487;-80
2021/11/11 02:03:18;;;;;;;15.75;10.43;;;8.80;77.90;;;;;;5032209;28;20471;-80
2021/11/11 02:05:45;;;;;;;15.55;9.30;;;8.90;77.80;;;;;;5032418;28;20041;-81
2021/11/11 02:08:12;;;;;;;18.55;11.80;;;8.90;77.70;;;;;;5031904;28;20064;-80
2021/11/11 02:10:38;;;;;;;17.88;12.07;;;8.80;77.70;;;;;;5032438;28;20124;-80
2021/11/11 02:13:05;;;;;;;15.82;10.95;;;8.90;77.80;;;;;;5030962;28;20476;-80
2021/11/11 02:15:31;;;;;;;16.58;11.00;;;8.90;77.70;;;;;;5032180;28;20092;-80
2021/11/11 02:17:57;;;;;;;17.23;11.93;;;8.90;77.70;;;;;;5030140;28;20484;-80
2021/11/11 02:20:26;;;;;;;19.02;12.57;;;8.90;77.70;;;;;;5032783;28;20029;-80
2021/11/11 02:22:54;;;;;;;15.73;10.30;;;8.90;77.70;;;;;;5031970;28;20130;-82
2021/11/11 02:25:22;;;;;;;17.75;12.05;;;8.90;77.60;;;;;;5032193;28;20033;-80
2021/11/11 02:27:50;;;;;;;20.20;13.07;;;8.80;77.70;;;;;;5031347;28;20018;-81
2021/11/11 02:30:17;;;;;;;19.00;12.40;;;8.80;77.80;;;;;;5031883;28;20153;-80
2021/11/11 02:32:45;;;;;;;18.73;11.38;;;8.80;77.80;;;;;;5030748;28;20030;-80
2021/11/11 02:35:12;;;;;;;18.02;12.23;;;8.80;77.90;;;;;;5031961;28;20044;-80
2021/11/11 02:37:40;;;;;;;18.13;11.52;;;8.80;77.90;;;;;;5029693;28;20037;-80
2021/11/11 02:40:09;;;;;;;22.27;13.48;;;8.70;77.90;;;;;;5032200;28;20030;-80
2021/11/11 02:42:35;;;;;;;19.52;12.52;;;8.80;78.10;;;;;;5031673;28;20044;-81
2021/11/11 02:45:05;;;;;;;21.17;12.60;;;8.80;78.10;;;;;;5030328;28;20464;-80
2021/11/11 02:47:31;;;;;;;16.35;10.30;;;8.80;78.20;;;;;;5029656;28;20439;-80
2021/11/11 02:49:57;;;;;;;17.70;10.57;;;8.80;78.10;;;;;;5031821;28;20096;-81
2021/11/11 02:52:23;;;;;;;18.75;12.60;;;8.80;78.00;;;;;;5030354;28;20061;-79
2021/11/11 02:54:48;;;;;;;18.63;11.77;;;8.80;78.00;;;;;;5031711;28;20045;-80
2021/11/11 02:57:29;;;;;;;21.58;12.60;;;8.80;78.00;;;;;;5031055;28;20041;-80
2021/11/11 02:59:59;;;;;;;19.40;11.93;;;8.70;78.00;;;;;;5031650;28;20396;-80
2021/11/11 03:02:31;;;;;;;24.80;14.00;;;8.70;78.10;;;;;;5031484;28;20025;-80
2021/11/11 03:04:59;;;;;;;18.85;11.50;;;8.80;78.20;;;;;;5030758;28;20033;-81
2021/11/11 03:07:25;;;;;;;18.70;11.98;;;8.70;78.00;;;;;;5030730;28;20036;-80
2021/11/11 03:09:52;;;;;;;19.38;12.48;;;8.70;78.10;;;;;;5031202;28;20033;-80
2021/11/11 03:12:18;;;;;;;25.10;13.85;;;8.70;78.10;;;;;;5031303;28;20464;-79
2021/11/11 03:14:45;;;;;;;21.88;12.57;;;8.70;78.10;;;;;;5030092;28;20108;-80
2021/11/11 03:17:11;;;;;;;20.48;12.18;;;8.80;78.10;;;;;;5030809;28;20041;-80
2021/11/11 03:19:38;;;;;;;17.65;10.93;;;8.80;78.00;;;;;;5031076;28;20025;-80
2021/11/11 03:22:11;;;;;;;21.02;12.02;;;8.80;78.00;;;;;;5030968;28;20049;-80
2021/11/11 03:24:38;;;;;;;19.00;12.05;;;8.90;77.90;;;;;;5031234;28;20040;-79
2021/11/11 03:27:05;;;;;;;18.60;12.20;;;8.90;77.80;;;;;;5019772;28;20021;-80
2021/11/11 03:29:30;;;;;;;18.88;11.20;;;8.90;77.80;;;;;;5030701;28;20021;-79
2021/11/11 03:31:56;;;;;;;17.85;10.88;;;8.90;77.80;;;;;;5030259;28;20018;-79
2021/11/11 03:34:23;;;;;;;20.48;11.50;;;8.90;77.80;;;;;;5030610;28;20547;-79
2021/11/11 03:36:53;;;;;;;21.42;12.88;;;8.90;77.90;;;;;;5029260;28;20037;-80
2021/11/11 03:39:20;;;;;;;22.70;12.95;;;8.80;77.90;;;;;;5029670;28;20128;-81
2021/11/11 03:41:48;;;;;;;21.88;12.55;;;8.80;78.00;;;;;;5029604;28;20061;-81
2021/11/11 03:44:15;;;;;;;21.70;11.77;;;8.80;78.00;;;;;;5029909;28;20033;-81
2021/11/11 03:46:42;;;;;;;19.10;11.65;;;8.80;77.90;;;;;;5029679;28;20384;-81
2021/11/11 03:49:08;;;;;;;19.73;12.02;;;8.80;77.90;;;;;;5029992;28;20029;-81
2021/11/11 03:51:34;;;;;;;18.35;10.82;;;8.80;78.00;;;;;;5017941;28;20029;-81
2021/11/11 03:53:59;;;;;;;18.67;12.40;;;8.80;78.00;;;;;;5029688;28;20397;-81
2021/11/11 03:56:25;;;;;;;19.25;11.27;;;8.80;78.00;;;;;;5030998;28;20034;-81
2021/11/11 03:58:51;;;;;;;20.42;12.18;;;8.80;78.10;;;;;;5030370;28;20451;-81
2021/11/11 04:01:17;;;;;;;19.52;10.98;;;8.70;78.10;;;;;;5031031;28;20075;-81
2021/11/11 04:03:43;;;;;;;16.88;10.82;;;8.80;78.20;;;;;;5030595;28;20025;-81
2021/11/11 04:06:08;;;;;;;18.92;11.60;;;8.80;78.10;;;;;;5029419;28;20376;-81
2021/11/11 04:08:34;;;;;;;20.60;11.90;;;8.80;78.00;;;;;;5028876;28;20104;-80
2021/11/11 04:11:01;;;;;;;20.40;12.40;;;8.80;78.00;;;;;;5030440;28;20033;-81
2021/11/11 04:13:28;;;;;;;18.90;10.95;;;8.80;78.10;;;;;;5030423;28;20116;-80
2021/11/11 04:15:54;;;;;;;17.65;11.30;;;8.80;78.10;;;;;;5029950;28;20026;-81
2021/11/11 04:18:20;;;;;;;22.83;12.00;;;8.80;78.10;;;;;;5033500;28;20443;-80
2021/11/11 04:20:45;;;;;;;20.52;11.93;;;8.80;78.10;;;;;;5033113;28;20116;-80
2021/11/11 04:23:11;;;;;;;18.15;11.65;;;8.80;78.10;;;;;;5034439;28;20041;-79
2021/11/11 04:25:48;;;;;;;16.77;10.02;;;8.80;78.10;;;;;;5034256;28;20189;-80
2021/11/11 04:28:21;;;;;;;20.27;12.27;;;8.80;78.10;;;;;;5033741;28;20512;-82
2021/11/11 04:30:49;;;;;;;22.10;12.82;;;8.80;78.20;;;;;;5034084;28;20076;-81
2021/11/11 04:33:15;;;;;;;20.15;11.65;;;8.80;78.20;;;;;;5033041;28;20029;-80
2021/11/11 04:35:45;;;;;;;18.27;10.88;;;8.80;78.20;;;;;;5034259;28;20025;-80
2021/11/11 04:38:32;;;;;;;17.13;10.60;;;8.80;78.20;;;;;;5032389;28;20037;-81
2021/11/11 04:41:35;;;;;;;19.63;11.27;;;8.80;78.00;;;;;;5032696;28;20029;-81
2021/11/11 04:44:11;;;;;;;21.05;12.70;;;8.90;78.00;;;;;;5061043;28;20029;-81
2021/11/11 04:49:42;;;;;;;16.60;10.32;;;8.80;77.90;;;;;;5033798;28;20108;-80
2021/11/11 05:01:10;;;;;;;22.23;11.95;;;8.80;78.10;;;;;;5033657;28;20115;-81
2021/11/11 05:05:47;;;;;;;21.05;11.32;;;8.80;78.00;;;;;;5033376;28;20036;-79
2021/11/11 05:08:13;;;;;;;17.33;10.70;;;8.80;78.60;;;;;;5032769;28;20032;-79
2021/11/11 05:10:39;;;;;;;22.83;13.23;;;8.90;78.00;;;;;;5033083;28;20040;-79
2021/11/11 05:13:05;;;;;;;21.05;11.95;;;8.90;77.90;;;;;;5033862;28;20022;-79
2021/11/11 05:15:31;;;;;;;19.50;11.80;;;8.90;77.90;;;;;;5033488;28;20037;-80
2021/11/11 05:17:56;;;;;;;22.85;13.77;;;8.90;77.90;;;;;;5032469;28;20037;-81
2021/11/11 05:20:22;;;;;;;20.83;12.57;;;8.80;77.90;;;;;;5033318;28;20357;-80
2021/11/11 05:22:48;;;;;;;20.60;12.90;;;8.80;77.90;;;;;;5033666;28;20071;-80
2021/11/11 05:25:16;;;;;;;18.15;11.30;;;8.80;77.90;;;;;;5032979;28;20096;-81
2021/11/11 05:27:44;;;;;;;20.73;11.75;;;8.90;78.00;;;;;;5031793;28;20487;-80
2021/11/11 05:30:12;;;;;;;20.67;11.82;;;8.90;77.90;;;;;;5031620;28;20091;-81
2021/11/11 05:32:38;;;;;;;19.40;11.85;;;8.90;78.40;;;;;;5033326;28;20076;-80
2021/11/11 05:35:05;;;;;;;22.30;12.25;;;8.90;77.80;;;;;;5033168;28;20424;-80
2021/11/11 05:37:31;;;;;;;20.48;11.75;;;8.90;78.60;;;;;;5030906;28;20034;-80
2021/11/11 05:39:56;;;;;;;19.95;11.98;;;8.90;77.90;;;;;;5033307;28;20018;-80
2021/11/11 05:42:22;;;;;;;18.85;11.32;;;8.90;77.90;;;;;;5033264;28;20037;-80
2021/11/11 05:44:48;;;;;;;20.33;11.73;;;8.90;77.90;;;;;;5032895;28;20571;-80
2021/11/11 05:47:18;;;;;;;14.40;9.60;;;8.90;78.00;;;;;;5032427;28;20033;-80
2021/11/11 05:49:44;;;;;;;16.73;10.35;;;8.90;78.00;;;;;;5023652;28;20026;-78
2021/11/11 05:52:10;;;;;;;17.10;10.65;;;9.00;78.10;;;;;;5032809;28;20401;-79
2021/11/11 05:54:38;;;;;;;22.75;13.85;;;9.00;78.00;;;;;;5053715;28;20382;-80
2021/11/11 05:57:07;;;;;;;18.08;11.65;;;8.90;78.10;;;;;;5023256;28;20137;-79
2021/11/11 05:59:33;;;;;;;16.48;10.45;;;8.80;78.10;;;;;;5025419;28;20368;-79
2021/11/11 06:02:00;;;;;;;17.60;11.45;;;8.90;78.30;;;;;;5026568;28;20049;-79
2021/11/11 06:04:26;;;;;;;19.15;11.55;;;8.90;78.30;;;;;;5032024;28;20071;-79
2021/11/11 06:06:52;;;;;;;23.40;12.85;;;8.90;78.40;;;;;;5025184;28;20038;-78
2021/11/11 06:09:17;;;;;;;22.83;12.32;;;8.80;78.20;;;;;;5016333;28;20092;-78
2021/11/11 06:11:43;;;;;;;18.92;11.82;;;8.90;78.30;;;;;;5014756;28;20036;-78
2021/11/11 06:14:08;;;;;;;21.17;12.70;;;8.90;78.30;;;;;;5025519;28;20484;-78
2021/11/11 06:16:34;;;;;;;19.65;11.73;;;8.90;78.20;;;;;;5027095;28;20514;-79
2021/11/11 06:18:59;;;;;;;20.48;11.88;;;8.90;78.20;;;;;;5017287;28;20034;-82
2021/11/11 06:21:25;;;;;;;22.55;13.32;;;8.90;78.20;;;;;;5020883;28;20123;-76
2021/11/11 06:23:52;;;;;;;17.15;10.88;;;8.90;78.20;;;;;;5023911;28;20092;-79
2021/11/11 06:26:20;;;;;;;20.80;12.57;;;8.90;78.20;;;;;;5023219;28;20021;-78
2021/11/11 06:28:45;;;;;;;22.77;13.05;;;8.90;78.20;;;;;;5025299;28;20029;-78
2021/11/11 06:31:11;;;;;;;22.02;13.80;;;8.90;78.20;;;;;;5025691;28;21503;-78
2021/11/11 06:33:36;;;;;;;21.48;13.27;;;8.90;78.20;;;;;;5024575;28;20036;-79
2021/11/11 06:36:03;;;;;;;19.10;11.77;;;8.80;78.20;;;;;;5023246;28;20017;-79
2021/11/11 06:38:29;;;;;;;17.92;11.20;;;8.90;78.20;;;;;;5024925;28;20097;-80
2021/11/11 06:40:55;;;;;;;18.20;10.95;;;8.90;78.20;;;;;;5026424;28;20140;-79
2021/11/11 06:43:20;;;;;;;19.00;11.63;;;8.90;78.10;;;;;;5029348;28;20064;-79
2021/11/11 06:45:46;;;;;;;20.17;12.60;;;8.90;78.10;;;;;;5025585;28;20018;-81
2021/11/11 06:48:13;;;;;;;25.58;15.52;;;8.90;78.20;;;;;;5034237;28;20048;-81
2021/11/11 06:50:40;;;;;;;20.73;12.88;;;8.90;78.30;;;;;;5027488;28;20392;-82
2021/11/11 06:53:07;;;;;;;29.33;16.80;;;8.80;78.30;;;;;;5028639;28;20036;-78
2021/11/11 06:55:35;;;;;;;25.35;15.82;;;8.80;78.40;;;;;;5020391;28;20358;-87
2021/11/11 06:58:01;;;;;;;22.08;13.70;;;8.70;78.60;;;;;;5018501;28;20492;-90
2021/11/11 07:00:27;;;;;;;22.40;13.27;;;8.70;78.50;;;;;;5031034;28;20013;-85
2021/11/11 07:02:53;;;;;;;21.13;12.88;;;8.80;78.60;;;;;;5020485;28;20676;-85
2021/11/11 07:05:18;;;;;;;19.85;13.63;;;8.80;78.60;;;;;;5027461;28;20026;-82
2021/11/11 07:07:44;;;;;;;22.70;13.38;;;8.80;78.60;;;;;;5032272;28;20025;-78
2021/11/11 07:10:10;;;;;;;23.42;14.02;;;8.80;78.60;;;;;;5027425;28;20060;-79
2021/11/11 07:12:36;;;;;;;20.88;13.40;;;8.80;78.60;;;;;;5019312;28;20041;-80
2021/11/11 07:15:06;;;;;;;21.60;12.57;;;8.80;78.70;;;;;;5025462;28;20458;-78
2021/11/11 07:17:33;;;;;;;21.60;14.13;;;8.70;78.70;;;;;;5026346;28;20033;-78
2021/11/11 07:19:59;;;;;;;24.02;14.60;;;8.80;78.80;;;;;;5024482;28;20376;-81
2021/11/11 07:22:25;;;;;;;28.52;15.60;;;8.80;78.80;;;;;;5025897;28;20100;-81
2021/11/11 07:24:50;;;;;;;26.33;16.95;;;8.70;79.00;;;;;;5024061;28;20429;-79
2021/11/11 07:27:16;;;;;;;22.92;13.75;;;8.70;79.10;;;;;;5027018;28;20022;-81
2021/11/11 07:29:41;;;;;;;23.52;14.07;;;8.70;79.10;;;;;;5028387;28;20030;-80
2021/11/11 07:32:07;;;;;;;21.98;14.30;;;8.70;79.10;;;;;;5026389;28;20040;-80
2021/11/11 07:34:33;;;;;;;24.98;15.50;;;8.70;79.00;;;;;;5025019;28;20022;-80
2021/11/11 07:36:59;;;;;;;18.70;11.73;;;8.70;79.00;;;;;;5019872;28;20042;-79
2021/11/11 07:39:26;;;;;;;25.02;14.90;;;8.70;79.10;;;;;;5026595;28;20014;-79
2021/11/11 07:41:51;;;;;;;16.00;10.77;;;8.80;79.10;;;;;;5025060;28;20042;-79
2021/11/11 07:44:17;;;;;;;22.90;14.85;;;8.80;79.00;;;;;;5028490;28;20386;-79
2021/11/11 07:46:42;;;;;;;21.35;14.18;;;8.70;79.30;;;;;;5024979;28;20045;-79
2021/11/11 07:49:09;;;;;;;25.60;15.43;;;8.60;79.60;;;;;;5026757;28;20468;-79
2021/11/11 07:51:35;;;;;;;24.98;14.70;;;8.70;79.70;;;;;;5029739;28;20319;-79
2021/11/11 07:54:02;;;;;;;13.70;9.07;;;8.70;79.70;;;;;;5051289;28;20018;-80
2021/11/11 07:56:28;;;;;;;22.23;13.55;;;8.70;79.70;;;;;;5046429;28;20025;-79
2021/11/11 07:58:54;;;;;;;19.60;12.88;;;8.60;79.70;;;;;;5021244;28;20061;-79
2021/11/11 08:01:19;;;;;;;21.38;13.48;;;8.60;79.90;;;;;;5020448;28;20049;-79
2021/11/11 08:03:45;;;;;;;23.67;14.82;;;8.60;80.10;;;;;;5053893;28;20084;-79
2021/11/11 08:06:12;;;;;;;22.20;14.00;;;8.50;80.30;;;;;;5025928;28;20018;-79
2021/11/11 08:08:38;;;;;;;35.55;23.75;;;8.50;80.60;;;;;;5028188;28;20026;-81
2021/11/11 08:11:04;;;;;;;28.25;17.70;;;8.60;80.70;;;;;;5013674;28;20034;-80
2021/11/11 08:13:30;;;;;;;23.83;15.05;;;8.50;80.70;;;;;;5026357;28;20026;-79
2021/11/11 08:15:56;;;;;;;16.13;10.32;;;8.50;80.70;;;;;;5033485;28;20470;-79
2021/11/11 08:18:22;;;;;;;21.00;13.05;;;8.60;80.70;;;;;;5033774;28;20487;-80
2021/11/11 08:20:49;;;;;;;22.85;12.20;;;8.60;80.50;;;;;;5042718;28;20040;-80
2021/11/11 08:23:16;;;;;;;22.45;13.20;;;8.70;80.40;;;;;;5054528;28;20073;-80
2021/11/11 08:25:46;;;;;;;25.40;14.23;;;8.70;80.30;;;;;;5041070;28;20052;-80
2021/11/11 08:28:12;;;;;;;20.88;13.98;;;8.70;80.20;;;;;;5032387;28;20014;-80
2021/11/11 08:30:38;;;;;;;19.52;13.35;;;8.70;80.10;;;;;;5034094;28;20064;-80
2021/11/11 08:33:04;;;;;;;26.00;14.25;;;8.80;80.00;;;;;;5032453;28;20459;-80
2021/11/11 08:35:31;;;;;;;21.15;12.63;;;8.80;79.90;;;;;;5028676;28;20399;-80
2021/11/11 08:37:57;;;;;;;15.45;9.75;;;8.80;79.90;;;;;;5049597;28;20044;-79
2021/11/11 08:40:23;;;;;;;26.60;15.02;;;8.80;79.70;;;;;;5054059;28;20017;-81
2021/11/11 08:42:53;;;;;;;20.80;13.27;;;8.80;79.70;;;;;;5054234;28;20033;-80
2021/11/11 08:45:19;;;;;;;21.90;13.68;;;8.80;79.80;;;;;;5054318;28;20025;-80
2021/11/11 08:47:46;;;;;;;16.48;10.52;;;8.90;79.70;;;;;;5046754;28;20033;-80
2021/11/11 08:50:13;;;;;;;20.02;13.30;;;8.90;79.60;;;;;;5036789;28;20043;-80
2021/11/11 08:52:44;;;;;;;22.85;13.55;;;8.90;79.60;;;;;;5052232;28;20082;-80
2021/11/11 08:55:21;;;;;;;20.35;13.35;;;8.90;79.60;;;;;;5039454;28;20029;-80
2021/11/11 08:57:47;;;;;;;17.95;10.30;;;9.00;79.60;;;;;;5049524;28;20056;-79
2021/11/11 09:00:18;;;;;;;24.05;14.65;;;9.00;79.50;;;;;;5033669;28;20334;-80
2021/11/11 09:02:45;;;;;;;19.27;12.00;;;9.00;79.40;;;;;;5031171;28;20029;-79
2021/11/11 09:05:11;;;;;;;22.05;13.93;;;9.10;79.40;;;;;;5031000;28;20034;-80
2021/11/11 09:07:39;;;;;;;20.55;13.23;;;9.10;79.40;;;;;;5039412;28;20020;-79
2021/11/11 09:10:14;;;;;;;21.63;13.35;;;9.00;79.30;;;;;;5041178;28;20203;-78
2021/11/11 09:12:40;;;;;;;21.88;12.65;;;9.10;79.30;;;;;;5035317;28;20117;-79
2021/11/11 09:15:11;;;;;;;18.75;11.45;;;9.10;79.30;;;;;;5048646;28;20104;-79
2021/11/11 09:17:40;;;;;;;19.40;11.40;;;9.10;79.30;;;;;;5039668;28;20027;-79
2021/11/11 09:20:11;;;;;;;25.85;14.65;;;9.20;79.30;;;;;;5053469;28;20522;-78
2021/11/11 09:22:37;;;;;;;24.92;14.23;;;9.20;79.20;;;;;;5038383;28;20056;-79
2021/11/11 09:25:05;;;;;;;17.90;10.63;;;9.20;79.10;;;;;;5031394;28;20029;-79
2021/11/11 09:27:31;;;;;;;989.17;77.82;;;9.30;79.10;;;;;;5033023;28;20357;-80
2021/11/11 09:29:57;;;;;;;50.13;17.67;;;9.20;78.90;;;;;;5031981;28;20025;-80
2021/11/11 09:32:23;;;;;;;24.42;14.07;;;9.30;79.00;;;;;;5040905;28;20103;-80
2021/11/11 09:34:48;;;;;;;22.40;13.45;;;9.30;78.90;;;;;;5036640;28;20104;-77
2021/11/11 09:37:14;;;;;;;25.92;14.52;;;9.30;78.80;;;;;;5032118;28;20029;-80
2021/11/11 09:39:39;;;;;;;29.75;17.80;;;9.40;78.80;;;;;;5032296;28;20425;-79
2021/11/11 09:42:07;;;;;;;27.55;16.52;;;9.40;78.70;;;;;;5032978;28;20079;-80
2021/11/11 09:44:32;;;;;;;25.35;14.73;;;9.40;78.60;;;;;;5033095;28;20477;-79
2021/11/11 09:46:58;;;;;;;23.98;13.10;;;9.40;78.60;;;;;;5032498;28;20013;-78
2021/11/11 09:49:26;;;;;;;25.60;14.23;;;9.50;78.60;;;;;;5032919;28;20024;-79
2021/11/11 09:51:52;;;;;;;29.40;17.30;;;9.50;78.50;;;;;;5031083;28;20029;-79
2021/11/11 09:59:38;;;;;;;24.25;14.68;;;9.50;78.40;;;;;;5033158;28;20072;-80
2021/11/11 10:02:04;;;;;;;23.73;14.63;;;9.60;78.40;;;;;;5031381;28;20476;-79
2021/11/11 10:04:31;;;;;;;22.60;13.20;;;9.60;78.30;;;;;;5031320;28;20025;-79
2021/11/11 10:06:56;;;;;;;18.08;11.15;;;9.70;78.40;;;;;;5032362;28;20079;-80
2021/11/11 10:09:25;;;;;;;24.88;15.43;;;9.70;78.30;;;;;;5032608;28;20025;-80
2021/11/11 10:11:57;;;;;;;29.98;17.98;;;9.70;78.20;;;;;;5029854;28;20037;-80
2021/11/11 10:14:27;;;;;;;23.45;13.27;;;9.60;78.20;;;;;;5019631;28;20026;-80
2021/11/11 10:16:55;;;;;;;30.20;18.55;;;9.70;78.30;;;;;;5016525;28;20037;-80
2021/11/11 10:19:22;;;;;;;28.45;16.98;;;9.70;78.40;;;;;;5045527;28;20385;-81
2021/11/11 10:22:00;;;;;;;26.45;15.68;;;9.70;78.30;;;;;;5026315;28;20067;-80
2021/11/11 10:24:30;;;;;;;27.88;16.15;;;9.70;78.30;;;;;;5026257;28;20018;-80
2021/11/11 10:27:02;;;;;;;30.52;17.85;;;9.80;78.30;;;;;;5017967;28;20587;-81
2021/11/11 10:29:38;;;;;;;32.38;18.48;;;9.80;78.20;;;;;;5030957;28;20514;-80
2021/11/11 10:32:20;;;;;;;28.13;15.73;;;9.80;78.20;;;;;;5032257;28;20028;-80
2021/11/11 10:35:12;;;;;;;22.33;12.48;;;9.80;78.20;;;;;;5018967;28;20149;-80
2021/11/11 10:37:42;;;;;;;31.58;17.35;;;9.90;78.10;;;;;;5026680;28;20045;-81
2021/11/11 10:40:21;;;;;;;25.98;15.50;;;9.90;77.90;;;;;;5025943;28;20026;-81
2021/11/11 10:42:49;;;;;;;30.13;17.58;;;9.90;77.90;;;;;;5016664;28;20030;-81
2021/11/11 10:45:21;;;;;;;29.77;16.65;;;10.00;77.90;;;;;;5028777;28;20028;-81
2021/11/11 10:47:51;;;;;;;27.65;15.52;;;10.00;77.90;;;;;;5023041;28;20018;-81
2021/11/11 10:50:21;;;;;;;28.02;16.13;;;10.00;77.80;;;;;;5023764;28;20053;-80
2021/11/11 10:52:51;;;;;;;24.63;14.35;;;10.10;77.80;;;;;;5033979;28;20058;-80
2021/11/11 10:55:20;;;;;;;25.25;14.95;;;10.10;77.70;;;;;;5031186;28;20041;-80
2021/11/11 10:57:54;;;;;;;96.50;23.90;;;10.20;77.60;;;;;;5017352;28;20474;-79
2021/11/11 11:00:27;;;;;;;30.48;15.98;;;10.30;77.50;;;;;;5013997;28;20276;-80
2021/11/11 11:02:55;;;;;;;27.67;14.60;;;10.30;77.40;;;;;;5016109;28;20034;-80
2021/11/11 11:05:24;;;;;;;21.38;12.30;;;10.30;77.30;;;;;;5040702;28;20496;-80
2021/11/11 11:07:55;;;;;;;23.27;12.55;;;10.40;77.20;;;;;;5021816;28;20025;-80
2021/11/11 11:10:21;;;;;;;28.60;15.48;;;10.50;77.20;;;;;;5032617;28;20026;-79
2021/11/11 11:12:47;;;;;;;23.02;13.35;;;10.50;77.10;;;;;;5047186;28;20040;-80
2021/11/11 11:15:35;;;;;;;24.85;14.13;;;10.50;77.00;;;;;;5029889;28;20029;-80
2021/11/11 11:18:01;;;;;;;17.50;10.85;;;10.60;77.00;;;;;;5023933;28;20072;-78
2021/11/11 11:20:28;;;;;;;20.85;12.05;;;10.60;76.90;;;;;;5028198;28;20044;-79
2021/11/11 11:23:15;;;;;;;33.25;17.30;;;10.60;76.90;;;;;;5025072;28;20029;-79
2021/11/11 11:26:21;;;;;;;30.73;17.60;;;10.60;76.80;;;;;;5027322;28;20427;-79
2021/11/11 11:28:50;;;;;;;24.00;13.02;;;10.60;76.80;;;;;;5032611;28;20041;-80
2021/11/11 11:31:31;;;;;;;23.17;12.95;;;10.50;76.80;;;;;;5025662;28;20268;-80
2021/11/11 11:33:58;;;;;;;29.05;16.38;;;10.60;76.90;;;;;;5025506;28;20040;-79
2021/11/11 11:36:35;;;;;;;26.05;15.77;;;10.50;76.80;;;;;;5036345;28;20414;-79
2021/11/11 11:39:02;;;;;;;26.52;16.38;;;10.60;76.80;;;;;;5029159;28;20032;-79
2021/11/11 11:41:40;;;;;;;22.25;13.30;;;10.60;76.80;;;;;;5028197;28;20104;-79
2021/11/11 11:44:29;;;;;;;25.23;13.93;;;10.60;76.80;;;;;;5025208;28;20029;-80
2021/11/11 11:47:09;;;;;;;24.85;13.45;;;10.60;76.90;;;;;;5025122;28;20026;-79
2021/11/11 11:49:36;;;;;;;24.27;14.20;;;10.60;76.90;;;;;;5027549;28;20343;-79
2021/11/11 11:52:03;;;;;;;26.38;15.90;;;10.70;76.90;;;;;;5025814;28;20064;-79
2021/11/11 11:54:46;;;;;;;24.30;14.52;;;10.70;76.90;;;;;;5027104;28;20075;-79
2021/11/11 11:57:20;;;;;;;25.27;13.73;;;10.60;76.90;;;;;;5026911;28;20472;-79
2021/11/11 11:59:51;;;;;;;21.85;13.20;;;10.70;77.00;;;;;;5027330;28;20030;-79
2021/11/11 12:02:22;;;;;;;21.88;12.77;;;10.70;77.00;;;;;;5016787;28;20033;-79
2021/11/11 12:05:04;;;;;;;22.83;13.02;;;10.70;77.00;;;;;;5023000;28;20026;-79
2021/11/11 12:07:43;;;;;;;26.50;16.20;;;10.70;76.90;;;;;;5026211;28;20029;-78
2021/11/11 12:10:23;;;;;;;28.58;17.27;;;10.70;76.90;;;;;;5023387;28;20124;-78
2021/11/11 12:13:32;;;;;;;23.45;14.20;;;10.70;76.90;;;;;;5022248;28;20054;-80
2021/11/11 12:39:34;;;;;;;24.95;15.93;;;10.60;77.40;;;;;;5021480;28;20060;-78
2021/11/11 12:42:03;;;;;;;25.10;16.33;;;10.60;77.80;;;;;;5020495;28;20038;-78
2021/11/11 12:44:29;;;;;;;29.83;17.83;;;10.60;77.90;;;;;;5023277;28;20041;-78
2021/11/11 12:46:56;;;;;;;24.08;15.25;;;10.60;78.20;;;;;;5022119;28;20044;-78
2021/11/11 12:49:41;;;;;;;25.45;15.60;;;10.60;78.40;;;;;;5027385;28;20022;-78
2021/11/11 12:52:19;;;;;;;25.73;16.35;;;10.60;78.70;;;;;;5025445;28;20072;-78
2021/11/11 12:54:45;;;;;;;24.45;16.90;;;10.60;78.80;;;;;;5030418;28;20072;-78
2021/11/11 12:57:12;;;;;;;29.85;20.20;;;10.60;78.90;;;;;;5031843;28;20140;-78
2021/11/11 12:59:38;;;;;;;22.08;14.25;;;10.60;79.10;;;;;;5023883;28;20029;-78
2021/11/11 13:02:09;;;;;;;32.40;20.58;;;10.60;79.20;;;;;;5026461;28;20049;-78
2021/11/11 13:04:46;;;;;;;31.98;19.60;;;10.60;79.40;;;;;;5024872;28;20030;-78
2021/11/11 13:07:30;;;;;;;27.00;18.15;;;10.60;79.60;;;;;;5040626;28;20034;-78
2021/11/11 13:10:16;;;;;;;22.95;16.15;;;10.50;79.60;;;;;;5023180;28;20511;-79
2021/11/11 13:12:42;;;;;;;20.02;14.02;;;10.50;79.60;;;;;;5024260;28;20028;-79
2021/11/11 13:15:14;;;;;;;25.23;15.07;;;10.60;79.60;;;;;;5023616;28;20100;-80
2021/11/11 13:17:48;;;;;;;19.88;12.70;;;10.70;79.60;;;;;;5017746;28;20444;-80
2021/11/11 13:20:17;;;;;;;24.48;16.10;;;10.70;79.50;;;;;;5023510;28;20021;-79
2021/11/11 13:22:49;;;;;;;23.58;15.40;;;10.80;79.40;;;;;;5029967;28;20069;-81
2021/11/11 13:25:48;;;;;;;23.77;15.75;;;10.80;79.50;;;;;;5031144;28;20009;-80